sensor_id;sensor_type;location;lat;lon;timestamp;P1;durP1;ratioP1;P2;durP2;ratioP2
10637;SDS011;47007;49.252;8.904;2023-08-31T00:00:41;2.92;;;2.63;;
10637;SDS011;47007;49.252;8.904;2023-08-31T00:01:23;2.70;;;2.50;;
10637;SDS011;47007;49.252;8.904;2023-08-31T00:02:05;3.20;;;3.00;;
10637;SDS011;47007;49.252;8.904;2023-08-31T00:02:47;3.25;;;3.03;;
10637;SDS011;47007;49.252;8.904;2023-08-31T00:03:29;2.97;;;2.78;;
10637;SDS011;47007;49.252;8.904;2023-08-31T00:04:12;2.88;;;2.78;;
10637;SDS011;47007;49.252;8.904;2023-08-31T00:04:56;3.25;;;2.95;;
10637;SDS011;47007;49.252;8.904;2023-08-31T00:05:40;3.80;;;3.50;;
10637;SDS011;47007;49.252;8.904;2023-08-31T00:06:22;3.83;;;3.53;;
10637;SDS011;47007;49.252;8.904;2023-08-31T00:07:04;4.15;;;3.83;;
10637;SDS011;47007;49.252;8.904;2023-08-31T00:07:46;3.90;;;3.60;;
10637;SDS011;47007;49.252;8.904;2023-08-31T00:08:28;3.72;;;3.38;;
10637;SDS011;47007;49.252;8.904;2023-08-31T00:09:10;3.22;;;3.03;;
10637;SDS011;47007;49.252;8.904;2023-08-31T00:09:54;3.60;;;3.40;;
10637;SDS011;47007;49.252;8.904;2023-08-31T00:10:36;3.50;;;3.30;;
10637;SDS011;47007;49.252;8.904;2023-08-31T00:11:18;3.28;;;2.97;;
10637;SDS011;47007;49.252;8.904;2023-08-31T00:12:01;2.97;;;2.78;;
10637;SDS011;47007;49.252;8.904;2023-08-31T00:12:44;3.50;;;2.95;;
10637;SDS011;47007;49.252;8.904;2023-08-31T00:13:26;3.30;;;3.05;;
10637;SDS011;47007;49.252;8.904;2023-08-31T00:14:09;3.10;;;2.90;;
10637;SDS011;47007;49.252;8.904;2023-08-31T00:14:50;3.53;;;3.25;;
10637;SDS011;47007;49.252;8.904;2023-08-31T00:15:32;3.13;;;2.90;;
10637;SDS011;47007;49.252;8.904;2023-08-31T00:16:16;3.00;;;2.80;;
10637;SDS011;47007;49.252;8.904;2023-08-31T00:16:58;3.10;;;2.90;;
10637;SDS011;47007;49.252;8.904;2023-08-31T00:17:40;3.75;;;3.45;;
10637;SDS011;47007;49.252;8.904;2023-08-31T00:18:21;3.67;;;3.45;;
10637;SDS011;47007;49.252;8.904;2023-08-31T00:19:03;3.55;;;3.25;;
10637;SDS011;47007;49.252;8.904;2023-08-31T00:19:45;3.55;;;3.25;;
10637;SDS011;47007;49.252;8.904;2023-08-31T00:20:26;3.83;;;3.53;;
10637;SDS011;47007;49.252;8.904;2023-08-31T00:21:11;3.50;;;3.30;;
10637;SDS011;47007;49.252;8.904;2023-08-31T00:21:53;4.10;;;3.70;;
10637;SDS011;47007;49.252;8.904;2023-08-31T00:22:34;3.55;;;3.25;;
10637;SDS011;47007;49.252;8.904;2023-08-31T00:23:16;4.53;;;3.58;;
10637;SDS011;47007;49.252;8.904;2023-08-31T00:23:57;4.10;;;3.70;;
10637;SDS011;47007;49.252;8.904;2023-08-31T00:24:39;4.00;;;3.70;;
10637;SDS011;47007;49.252;8.904;2023-08-31T00:25:21;3.80;;;3.38;;
10637;SDS011;47007;49.252;8.904;2023-08-31T00:26:02;3.55;;;3.35;;
10637;SDS011;47007;49.252;8.904;2023-08-31T00:26:44;3.80;;;3.50;;
10637;SDS011;47007;49.252;8.904;2023-08-31T00:27:26;3.47;;;3.25;;
10637;SDS011;47007;49.252;8.904;2023-08-31T00:28:11;3.67;;;3.38;;
10637;SDS011;47007;49.252;8.904;2023-08-31T00:28:52;4.22;;;3.92;;
10637;SDS011;47007;49.252;8.904;2023-08-31T00:29:36;3.65;;;3.40;;
10637;SDS011;47007;49.252;8.904;2023-08-31T00:30:21;4.18;;;3.75;;
10637;SDS011;47007;49.252;8.904;2023-08-31T00:31:02;3.35;;;3.13;;
10637;SDS011;47007;49.252;8.904;2023-08-31T00:31:45;3.75;;;3.25;;
10637;SDS011;47007;49.252;8.904;2023-08-31T00:32:26;3.67;;;3.47;;
10637;SDS011;47007;49.252;8.904;2023-08-31T00:33:08;4.10;;;3.50;;
10637;SDS011;47007;49.252;8.904;2023-08-31T00:33:50;3.80;;;3.50;;
10637;SDS011;47007;49.252;8.904;2023-08-31T00:34:32;3.42;;;3.22;;
10637;SDS011;47007;49.252;8.904;2023-08-31T00:35:13;3.30;;;2.85;;
10637;SDS011;47007;49.252;8.904;2023-08-31T00:35:55;3.92;;;3.53;;
10637;SDS011;47007;49.252;8.904;2023-08-31T00:36:37;3.38;;;3.17;;
10637;SDS011;47007;49.252;8.904;2023-08-31T00:37:20;4.07;;;3.72;;
10637;SDS011;47007;49.252;8.904;2023-08-31T00:38:02;3.65;;;3.35;;
10637;SDS011;47007;49.252;8.904;2023-08-31T00:38:45;3.80;;;3.60;;
10637;SDS011;47007;49.252;8.904;2023-08-31T00:39:27;3.55;;;3.17;;
10637;SDS011;47007;49.252;8.904;2023-08-31T00:40:09;3.70;;;3.40;;
10637;SDS011;47007;49.252;8.904;2023-08-31T00:40:55;3.55;;;3.25;;
10637;SDS011;47007;49.252;8.904;2023-08-31T00:41:37;3.45;;;3.25;;
10637;SDS011;47007;49.252;8.904;2023-08-31T00:42:20;3.00;;;2.80;;
10637;SDS011;47007;49.252;8.904;2023-08-31T00:43:01;2.90;;;2.70;;
10637;SDS011;47007;49.252;8.904;2023-08-31T00:43:44;2.97;;;2.78;;
10637;SDS011;47007;49.252;8.904;2023-08-31T00:44:26;2.72;;;2.63;;
10637;SDS011;47007;49.252;8.904;2023-08-31T00:45:08;3.53;;;3.28;;
10637;SDS011;47007;49.252;8.904;2023-08-31T00:45:50;4.10;;;3.80;;
10637;SDS011;47007;49.252;8.904;2023-08-31T00:46:37;3.55;;;3.35;;
10637;SDS011;47007;49.252;8.904;2023-08-31T00:47:19;4.00;;;3.70;;
10637;SDS011;47007;49.252;8.904;2023-08-31T00:48:01;3.30;;;3.10;;
10637;SDS011;47007;49.252;8.904;2023-08-31T00:48:42;3.47;;;3.28;;
10637;SDS011;47007;49.252;8.904;2023-08-31T00:49:24;3.55;;;3.35;;
10637;SDS011;47007;49.252;8.904;2023-08-31T00:50:06;3.53;;;3.33;;
10637;SDS011;47007;49.252;8.904;2023-08-31T00:50:49;3.70;;;3.40;;
10637;SDS011;47007;49.252;8.904;2023-08-31T00:51:31;3.65;;;3.28;;
10637;SDS011;47007;49.252;8.904;2023-08-31T00:52:13;3.90;;;3.50;;
10637;SDS011;47007;49.252;8.904;2023-08-31T00:52:55;3.78;;;3.58;;
10637;SDS011;47007;49.252;8.904;2023-08-31T00:53:37;3.92;;;3.63;;
10637;SDS011;47007;49.252;8.904;2023-08-31T00:54:20;3.30;;;3.10;;
10637;SDS011;47007;49.252;8.904;2023-08-31T00:55:04;3.35;;;3.15;;
10637;SDS011;47007;49.252;8.904;2023-08-31T00:55:47;3.53;;;3.33;;
10637;SDS011;47007;49.252;8.904;2023-08-31T00:56:28;3.65;;;3.45;;
10637;SDS011;47007;49.252;8.904;2023-08-31T00:57:10;3.20;;;3.00;;
10637;SDS011;47007;49.252;8.904;2023-08-31T00:57:52;3.72;;;3.53;;
10637;SDS011;47007;49.252;8.904;2023-08-31T00:58:34;3.75;;;3.45;;
10637;SDS011;47007;49.252;8.904;2023-08-31T00:59:16;3.42;;;3.22;;
10637;SDS011;47007;49.252;8.904;2023-08-31T00:59:59;3.17;;;2.97;;
10637;SDS011;47007;49.252;8.904;2023-08-31T01:00:48;3.92;;;3.70;;
10637;SDS011;47007;49.252;8.904;2023-08-31T01:01:40;3.22;;;3.03;;
10637;SDS011;47007;49.252;8.904;2023-08-31T01:02:30;3.50;;;3.15;;
10637;SDS011;47007;49.252;8.904;2023-08-31T01:06:50;4.40;;;4.00;;
10637;SDS011;47007;49.252;8.904;2023-08-31T01:08:21;4.40;;;4.00;;
10637;SDS011;47007;49.252;8.904;2023-08-31T01:09:21;4.60;;;4.20;;
10637;SDS011;47007;49.252;8.904;2023-08-31T01:11:34;3.78;;;3.45;;
10637;SDS011;47007;49.252;8.904;2023-08-31T01:12:28;4.40;;;4.03;;
10637;SDS011;47007;49.252;8.904;2023-08-31T01:13:17;5.00;;;4.50;;
10637;SDS011;47007;49.252;8.904;2023-08-31T01:14:16;4.45;;;4.03;;
10637;SDS011;47007;49.252;8.904;2023-08-31T01:15:05;4.10;;;3.90;;
10637;SDS011;47007;49.252;8.904;2023-08-31T01:15:53;4.40;;;4.10;;
10637;SDS011;47007;49.252;8.904;2023-08-31T01:16:37;4.50;;;4.20;;
10637;SDS011;47007;49.252;8.904;2023-08-31T01:17:23;4.95;;;4.55;;
10637;SDS011;47007;49.252;8.904;2023-08-31T01:18:08;5.22;;;4.82;;
10637;SDS011;47007;49.252;8.904;2023-08-31T01:18:53;5.40;;;5.00;;
10637;SDS011;47007;49.252;8.904;2023-08-31T01:19:47;6.72;;;4.80;;
10637;SDS011;47007;49.252;8.904;2023-08-31T01:20:45;4.35;;;4.07;;
10637;SDS011;47007;49.252;8.904;2023-08-31T01:21:30;4.95;;;4.55;;
10637;SDS011;47007;49.252;8.904;2023-08-31T01:22:39;6.03;;;4.85;;
10637;SDS011;47007;49.252;8.904;2023-08-31T01:23:27;5.70;;;5.30;;
10637;SDS011;47007;49.252;8.904;2023-08-31T01:24:15;5.30;;;4.93;;
10637;SDS011;47007;49.252;8.904;2023-08-31T01:24:58;6.85;;;6.22;;
10637;SDS011;47007;49.252;8.904;2023-08-31T01:25:45;4.63;;;4.32;;
10637;SDS011;47007;49.252;8.904;2023-08-31T01:26:29;5.10;;;4.80;;
10637;SDS011;47007;49.252;8.904;2023-08-31T01:27:11;5.18;;;4.80;;
10637;SDS011;47007;49.252;8.904;2023-08-31T01:27:53;6.50;;;6.00;;
10637;SDS011;47007;49.252;8.904;2023-08-31T01:28:35;6.45;;;5.85;;
10637;SDS011;47007;49.252;8.904;2023-08-31T01:29:17;6.10;;;5.70;;
10637;SDS011;47007;49.252;8.904;2023-08-31T01:29:59;5.60;;;5.20;;
10637;SDS011;47007;49.252;8.904;2023-08-31T01:30:41;6.28;;;5.78;;
10637;SDS011;47007;49.252;8.904;2023-08-31T01:31:23;5.00;;;4.60;;
10637;SDS011;47007;49.252;8.904;2023-08-31T01:32:05;5.10;;;4.70;;
10637;SDS011;47007;49.252;8.904;2023-08-31T01:32:49;5.38;;;4.97;;
10637;SDS011;47007;49.252;8.904;2023-08-31T01:33:30;5.63;;;5.30;;
10637;SDS011;47007;49.252;8.904;2023-08-31T01:34:12;6.10;;;5.60;;
10637;SDS011;47007;49.252;8.904;2023-08-31T01:34:54;5.72;;;5.32;;
10637;SDS011;47007;49.252;8.904;2023-08-31T01:35:46;5.63;;;5.22;;
10637;SDS011;47007;49.252;8.904;2023-08-31T01:36:36;6.13;;;5.57;;
10637;SDS011;47007;49.252;8.904;2023-08-31T01:37:34;5.45;;;4.90;;
10637;SDS011;47007;49.252;8.904;2023-08-31T01:38:25;5.32;;;4.93;;
10637;SDS011;47007;49.252;8.904;2023-08-31T01:39:21;5.65;;;5.25;;
10637;SDS011;47007;49.252;8.904;2023-08-31T01:41:34;5.55;;;5.10;;
10637;SDS011;47007;49.252;8.904;2023-08-31T01:42:17;5.93;;;5.38;;
10637;SDS011;47007;49.252;8.904;2023-08-31T01:43:02;6.03;;;5.45;;
10637;SDS011;47007;49.252;8.904;2023-08-31T01:43:47;4.68;;;4.38;;
10637;SDS011;47007;49.252;8.904;2023-08-31T01:44:34;5.57;;;5.10;;
10637;SDS011;47007;49.252;8.904;2023-08-31T01:45:20;5.13;;;4.82;;
10637;SDS011;47007;49.252;8.904;2023-08-31T01:46:03;4.85;;;4.45;;
10637;SDS011;47007;49.252;8.904;2023-08-31T01:46:47;3.85;;;3.65;;
10637;SDS011;47007;49.252;8.904;2023-08-31T01:47:37;5.20;;;4.75;;
10637;SDS011;47007;49.252;8.904;2023-08-31T01:48:19;5.40;;;4.85;;
10637;SDS011;47007;49.252;8.904;2023-08-31T01:49:00;5.57;;;5.10;;
10637;SDS011;47007;49.252;8.904;2023-08-31T01:49:43;6.47;;;5.53;;
10637;SDS011;47007;49.252;8.904;2023-08-31T01:50:25;5.70;;;5.30;;
10637;SDS011;47007;49.252;8.904;2023-08-31T01:51:07;6.28;;;5.78;;
10637;SDS011;47007;49.252;8.904;2023-08-31T01:51:50;6.15;;;5.75;;
10637;SDS011;47007;49.252;8.904;2023-08-31T01:52:32;6.25;;;5.75;;
10637;SDS011;47007;49.252;8.904;2023-08-31T01:53:13;6.40;;;5.90;;
10637;SDS011;47007;49.252;8.904;2023-08-31T01:53:56;6.85;;;6.25;;
10637;SDS011;47007;49.252;8.904;2023-08-31T01:54:39;6.13;;;5.72;;
10637;SDS011;47007;49.252;8.904;2023-08-31T01:55:22;6.50;;;5.90;;
10637;SDS011;47007;49.252;8.904;2023-08-31T01:56:04;6.90;;;6.00;;
10637;SDS011;47007;49.252;8.904;2023-08-31T01:56:46;6.80;;;6.30;;
10637;SDS011;47007;49.252;8.904;2023-08-31T01:57:28;7.80;;;6.47;;
10637;SDS011;47007;49.252;8.904;2023-08-31T01:58:36;6.13;;;5.63;;
10637;SDS011;47007;49.252;8.904;2023-08-31T01:59:18;6.47;;;6.00;;
10637;SDS011;47007;49.252;8.904;2023-08-31T01:59:59;6.00;;;5.55;;
10637;SDS011;47007;49.252;8.904;2023-08-31T02:00:41;6.95;;;6.45;;
10637;SDS011;47007;49.252;8.904;2023-08-31T02:01:23;6.97;;;6.38;;
10637;SDS011;47007;49.252;8.904;2023-08-31T02:02:04;6.60;;;6.10;;
10637;SDS011;47007;49.252;8.904;2023-08-31T02:02:47;6.45;;;5.85;;
10637;SDS011;47007;49.252;8.904;2023-08-31T02:03:29;7.00;;;6.30;;
10637;SDS011;47007;49.252;8.904;2023-08-31T02:04:11;6.18;;;5.78;;
10637;SDS011;47007;49.252;8.904;2023-08-31T02:04:52;6.57;;;6.03;;
10637;SDS011;47007;49.252;8.904;2023-08-31T02:05:34;6.57;;;5.97;;
10637;SDS011;47007;49.252;8.904;2023-08-31T02:06:16;6.03;;;5.63;;
10637;SDS011;47007;49.252;8.904;2023-08-31T02:06:57;6.40;;;5.88;;
10637;SDS011;47007;49.252;8.904;2023-08-31T02:07:39;6.30;;;5.80;;
10637;SDS011;47007;49.252;8.904;2023-08-31T02:08:21;7.25;;;6.00;;
10637;SDS011;47007;49.252;8.904;2023-08-31T02:09:05;6.70;;;6.18;;
10637;SDS011;47007;49.252;8.904;2023-08-31T02:09:47;6.15;;;5.75;;
10637;SDS011;47007;49.252;8.904;2023-08-31T02:10:29;6.63;;;6.00;;
10637;SDS011;47007;49.252;8.904;2023-08-31T02:11:11;6.68;;;6.07;;
10637;SDS011;47007;49.252;8.904;2023-08-31T02:11:53;6.40;;;5.90;;
10637;SDS011;47007;49.252;8.904;2023-08-31T02:12:35;6.85;;;6.18;;
10637;SDS011;47007;49.252;8.904;2023-08-31T02:13:19;6.10;;;5.70;;
10637;SDS011;47007;49.252;8.904;2023-08-31T02:14:01;5.95;;;5.40;;
10637;SDS011;47007;49.252;8.904;2023-08-31T02:14:44;6.63;;;6.07;;
10637;SDS011;47007;49.252;8.904;2023-08-31T02:15:26;6.32;;;5.90;;
10637;SDS011;47007;49.252;8.904;2023-08-31T02:16:07;5.75;;;5.35;;
10637;SDS011;47007;49.252;8.904;2023-08-31T02:16:50;5.97;;;5.47;;
10637;SDS011;47007;49.252;8.904;2023-08-31T02:17:35;6.43;;;5.82;;
10637;SDS011;47007;49.252;8.904;2023-08-31T02:18:18;6.38;;;5.85;;
10637;SDS011;47007;49.252;8.904;2023-08-31T02:18:59;6.22;;;5.82;;
10637;SDS011;47007;49.252;8.904;2023-08-31T02:19:41;6.38;;;5.93;;
10637;SDS011;47007;49.252;8.904;2023-08-31T02:20:23;6.65;;;6.05;;
10637;SDS011;47007;49.252;8.904;2023-08-31T02:21:05;6.43;;;6.03;;
10637;SDS011;47007;49.252;8.904;2023-08-31T02:21:48;7.30;;;6.43;;
10637;SDS011;47007;49.252;8.904;2023-08-31T02:22:30;6.18;;;5.57;;
10637;SDS011;47007;49.252;8.904;2023-08-31T02:23:14;5.88;;;5.35;;
10637;SDS011;47007;49.252;8.904;2023-08-31T02:23:56;6.30;;;5.90;;
10637;SDS011;47007;49.252;8.904;2023-08-31T02:24:37;5.75;;;5.35;;
10637;SDS011;47007;49.252;8.904;2023-08-31T02:25:19;5.85;;;5.35;;
10637;SDS011;47007;49.252;8.904;2023-08-31T02:26:01;5.95;;;5.45;;
10637;SDS011;47007;49.252;8.904;2023-08-31T02:26:43;5.93;;;5.43;;
10637;SDS011;47007;49.252;8.904;2023-08-31T02:27:24;5.03;;;4.63;;
10637;SDS011;47007;49.252;8.904;2023-08-31T02:28:06;6.05;;;5.45;;
10637;SDS011;47007;49.252;8.904;2023-08-31T02:28:50;6.88;;;5.78;;
10637;SDS011;47007;49.252;8.904;2023-08-31T02:29:32;5.70;;;5.30;;
10637;SDS011;47007;49.252;8.904;2023-08-31T02:30:14;5.95;;;5.45;;
10637;SDS011;47007;49.252;8.904;2023-08-31T02:30:59;6.72;;;6.22;;
10637;SDS011;47007;49.252;8.904;2023-08-31T02:31:44;5.72;;;5.32;;
10637;SDS011;47007;49.252;8.904;2023-08-31T02:32:26;6.10;;;5.60;;
10637;SDS011;47007;49.252;8.904;2023-08-31T02:33:08;5.63;;;5.22;;
10637;SDS011;47007;49.252;8.904;2023-08-31T02:33:51;5.88;;;5.38;;
10637;SDS011;47007;49.252;8.904;2023-08-31T02:34:34;5.90;;;5.50;;
10637;SDS011;47007;49.252;8.904;2023-08-31T02:35:15;5.53;;;5.13;;
10637;SDS011;47007;49.252;8.904;2023-08-31T02:35:57;5.75;;;5.25;;
10637;SDS011;47007;49.252;8.904;2023-08-31T02:36:39;5.47;;;4.97;;
10637;SDS011;47007;49.252;8.904;2023-08-31T02:37:21;5.80;;;5.28;;
10637;SDS011;47007;49.252;8.904;2023-08-31T02:38:04;4.90;;;4.60;;
10637;SDS011;47007;49.252;8.904;2023-08-31T02:38:46;5.00;;;4.53;;
10637;SDS011;47007;49.252;8.904;2023-08-31T02:39:28;5.80;;;5.28;;
10637;SDS011;47007;49.252;8.904;2023-08-31T02:40:10;5.50;;;5.03;;
10637;SDS011;47007;49.252;8.904;2023-08-31T02:40:52;5.18;;;4.78;;
10637;SDS011;47007;49.252;8.904;2023-08-31T02:41:33;5.78;;;5.30;;
10637;SDS011;47007;49.252;8.904;2023-08-31T02:42:15;6.20;;;5.60;;
10637;SDS011;47007;49.252;8.904;2023-08-31T02:42:59;5.82;;;5.43;;
10637;SDS011;47007;49.252;8.904;2023-08-31T02:43:41;6.00;;;5.50;;
10637;SDS011;47007;49.252;8.904;2023-08-31T02:44:24;5.30;;;5.00;;
10637;SDS011;47007;49.252;8.904;2023-08-31T02:45:07;6.50;;;5.90;;
10637;SDS011;47007;49.252;8.904;2023-08-31T02:45:49;6.25;;;5.65;;
10637;SDS011;47007;49.252;8.904;2023-08-31T02:46:30;6.10;;;5.55;;
10637;SDS011;47007;49.252;8.904;2023-08-31T02:47:12;5.40;;;5.10;;
10637;SDS011;47007;49.252;8.904;2023-08-31T02:47:54;6.03;;;5.68;;
10637;SDS011;47007;49.252;8.904;2023-08-31T02:48:37;5.53;;;5.13;;
10637;SDS011;47007;49.252;8.904;2023-08-31T02:49:20;6.82;;;6.13;;
10637;SDS011;47007;49.252;8.904;2023-08-31T02:50:02;6.22;;;5.63;;
10637;SDS011;47007;49.252;8.904;2023-08-31T02:50:44;6.40;;;5.80;;
10637;SDS011;47007;49.252;8.904;2023-08-31T02:51:26;5.57;;;5.18;;
10637;SDS011;47007;49.252;8.904;2023-08-31T02:52:07;5.13;;;4.72;;
10637;SDS011;47007;49.252;8.904;2023-08-31T02:52:49;5.45;;;5.05;;
10637;SDS011;47007;49.252;8.904;2023-08-31T02:53:31;5.30;;;4.90;;
10637;SDS011;47007;49.252;8.904;2023-08-31T02:54:12;6.00;;;5.32;;
10637;SDS011;47007;49.252;8.904;2023-08-31T02:54:54;5.55;;;5.13;;
10637;SDS011;47007;49.252;8.904;2023-08-31T02:55:36;6.25;;;5.75;;
10637;SDS011;47007;49.252;8.904;2023-08-31T02:56:17;5.78;;;5.35;;
10637;SDS011;47007;49.252;8.904;2023-08-31T02:57:00;5.50;;;5.00;;
10637;SDS011;47007;49.252;8.904;2023-08-31T02:57:42;6.78;;;5.68;;
10637;SDS011;47007;49.252;8.904;2023-08-31T02:58:24;5.30;;;4.85;;
10637;SDS011;47007;49.252;8.904;2023-08-31T02:59:06;5.43;;;5.03;;
10637;SDS011;47007;49.252;8.904;2023-08-31T02:59:51;5.55;;;5.13;;
10637;SDS011;47007;49.252;8.904;2023-08-31T03:00:33;5.75;;;5.30;;
10637;SDS011;47007;49.252;8.904;2023-08-31T03:01:15;5.93;;;5.47;;
10637;SDS011;47007;49.252;8.904;2023-08-31T03:02:01;5.88;;;5.38;;
10637;SDS011;47007;49.252;8.904;2023-08-31T03:02:44;5.32;;;4.93;;
10637;SDS011;47007;49.252;8.904;2023-08-31T03:03:25;5.93;;;5.50;;
10637;SDS011;47007;49.252;8.904;2023-08-31T03:04:07;5.70;;;5.20;;
10637;SDS011;47007;49.252;8.904;2023-08-31T03:04:49;6.05;;;5.55;;
10637;SDS011;47007;49.252;8.904;2023-08-31T03:05:31;6.28;;;5.88;;
10637;SDS011;47007;49.252;8.904;2023-08-31T03:06:12;5.20;;;4.80;;
10637;SDS011;47007;49.252;8.904;2023-08-31T03:06:54;5.68;;;5.15;;
10637;SDS011;47007;49.252;8.904;2023-08-31T03:07:36;5.25;;;4.85;;
10637;SDS011;47007;49.252;8.904;2023-08-31T03:08:18;4.95;;;4.53;;
10637;SDS011;47007;49.252;8.904;2023-08-31T03:08:59;4.70;;;4.28;;
10637;SDS011;47007;49.252;8.904;2023-08-31T03:09:47;4.70;;;4.30;;
10637;SDS011;47007;49.252;8.904;2023-08-31T03:10:30;5.68;;;5.28;;
10637;SDS011;47007;49.252;8.904;2023-08-31T03:11:12;4.97;;;4.57;;
10637;SDS011;47007;49.252;8.904;2023-08-31T03:11:56;5.53;;;5.03;;
10637;SDS011;47007;49.252;8.904;2023-08-31T03:12:37;5.40;;;4.85;;
10637;SDS011;47007;49.252;8.904;2023-08-31T03:13:19;4.90;;;4.40;;
10637;SDS011;47007;49.252;8.904;2023-08-31T03:14:00;4.95;;;4.55;;
10637;SDS011;47007;49.252;8.904;2023-08-31T03:14:42;4.93;;;4.50;;
10637;SDS011;47007;49.252;8.904;2023-08-31T03:15:24;5.22;;;4.68;;
10637;SDS011;47007;49.252;8.904;2023-08-31T03:16:06;4.72;;;4.35;;
10637;SDS011;47007;49.252;8.904;2023-08-31T03:16:48;4.50;;;4.20;;
10637;SDS011;47007;49.252;8.904;2023-08-31T03:17:30;4.40;;;4.10;;
10637;SDS011;47007;49.252;8.904;2023-08-31T03:18:12;4.68;;;4.38;;
10637;SDS011;47007;49.252;8.904;2023-08-31T03:18:53;4.30;;;4.00;;
10637;SDS011;47007;49.252;8.904;2023-08-31T03:19:35;4.75;;;4.35;;
10637;SDS011;47007;49.252;8.904;2023-08-31T03:20:18;4.50;;;4.10;;
10637;SDS011;47007;49.252;8.904;2023-08-31T03:21:00;4.13;;;3.83;;
10637;SDS011;47007;49.252;8.904;2023-08-31T03:21:42;4.82;;;4.43;;
10637;SDS011;47007;49.252;8.904;2023-08-31T03:22:23;4.25;;;3.95;;
10637;SDS011;47007;49.252;8.904;2023-08-31T03:23:05;4.53;;;4.10;;
10637;SDS011;47007;49.252;8.904;2023-08-31T03:23:47;4.10;;;3.80;;
10637;SDS011;47007;49.252;8.904;2023-08-31T03:24:28;4.10;;;3.70;;
10637;SDS011;47007;49.252;8.904;2023-08-31T03:25:10;3.58;;;3.08;;
10637;SDS011;47007;49.252;8.904;2023-08-31T03:25:52;3.63;;;3.38;;
10637;SDS011;47007;49.252;8.904;2023-08-31T03:26:34;3.42;;;3.13;;
10637;SDS011;47007;49.252;8.904;2023-08-31T03:27:17;4.50;;;2.97;;
10637;SDS011;47007;49.252;8.904;2023-08-31T03:28:00;3.70;;;3.40;;
10637;SDS011;47007;49.252;8.904;2023-08-31T03:28:42;4.32;;;3.55;;
10637;SDS011;47007;49.252;8.904;2023-08-31T03:29:23;3.45;;;3.20;;
10637;SDS011;47007;49.252;8.904;2023-08-31T03:30:06;3.35;;;3.05;;
10637;SDS011;47007;49.252;8.904;2023-08-31T03:30:57;3.20;;;2.90;;
10637;SDS011;47007;49.252;8.904;2023-08-31T03:31:39;3.47;;;2.80;;
10637;SDS011;47007;49.252;8.904;2023-08-31T03:32:20;3.83;;;3.00;;
10637;SDS011;47007;49.252;8.904;2023-08-31T03:33:02;3.33;;;2.72;;
10637;SDS011;47007;49.252;8.904;2023-08-31T03:33:44;4.25;;;2.67;;
10637;SDS011;47007;49.252;8.904;2023-08-31T03:34:29;2.70;;;2.50;;
10637;SDS011;47007;49.252;8.904;2023-08-31T03:35:12;2.70;;;2.50;;
10637;SDS011;47007;49.252;8.904;2023-08-31T03:35:53;3.47;;;3.17;;
10637;SDS011;47007;49.252;8.904;2023-08-31T03:36:35;3.17;;;2.97;;
10637;SDS011;47007;49.252;8.904;2023-08-31T03:37:18;3.58;;;2.90;;
10637;SDS011;47007;49.252;8.904;2023-08-31T03:38:01;5.70;;;3.05;;
10637;SDS011;47007;49.252;8.904;2023-08-31T03:38:43;3.00;;;2.80;;
10637;SDS011;47007;49.252;8.904;2023-08-31T03:39:25;3.55;;;2.90;;
10637;SDS011;47007;49.252;8.904;2023-08-31T03:40:07;3.20;;;2.80;;
10637;SDS011;47007;49.252;8.904;2023-08-31T03:40:52;4.72;;;2.70;;
10637;SDS011;47007;49.252;8.904;2023-08-31T03:41:37;2.85;;;2.63;;
10637;SDS011;47007;49.252;8.904;2023-08-31T03:42:22;4.85;;;3.08;;
10637;SDS011;47007;49.252;8.904;2023-08-31T03:43:03;3.45;;;3.10;;
10637;SDS011;47007;49.252;8.904;2023-08-31T03:43:45;3.10;;;2.80;;
10637;SDS011;47007;49.252;8.904;2023-08-31T03:44:27;3.75;;;2.70;;
10637;SDS011;47007;49.252;8.904;2023-08-31T03:45:09;3.58;;;2.90;;
10637;SDS011;47007;49.252;8.904;2023-08-31T03:45:54;3.72;;;2.85;;
10637;SDS011;47007;49.252;8.904;2023-08-31T03:46:39;2.95;;;2.75;;
10637;SDS011;47007;49.252;8.904;2023-08-31T03:47:21;3.40;;;3.10;;
10637;SDS011;47007;49.252;8.904;2023-08-31T03:48:02;2.75;;;2.42;;
10637;SDS011;47007;49.252;8.904;2023-08-31T03:48:44;2.92;;;2.47;;
10637;SDS011;47007;49.252;8.904;2023-08-31T03:49:26;3.88;;;2.95;;
10637;SDS011;47007;49.252;8.904;2023-08-31T03:50:08;3.95;;;2.92;;
10637;SDS011;47007;49.252;8.904;2023-08-31T03:50:50;3.35;;;2.70;;
10637;SDS011;47007;49.252;8.904;2023-08-31T03:51:32;3.10;;;2.85;;
10637;SDS011;47007;49.252;8.904;2023-08-31T03:52:15;2.88;;;2.65;;
10637;SDS011;47007;49.252;8.904;2023-08-31T03:52:57;2.85;;;2.50;;
10637;SDS011;47007;49.252;8.904;2023-08-31T03:53:39;2.78;;;2.22;;
10637;SDS011;47007;49.252;8.904;2023-08-31T03:54:20;3.13;;;2.55;;
10637;SDS011;47007;49.252;8.904;2023-08-31T03:55:02;2.90;;;2.70;;
10637;SDS011;47007;49.252;8.904;2023-08-31T03:55:44;2.53;;;2.30;;
10637;SDS011;47007;49.252;8.904;2023-08-31T03:56:28;2.45;;;2.30;;
10637;SDS011;47007;49.252;8.904;2023-08-31T03:57:10;3.08;;;2.20;;
10637;SDS011;47007;49.252;8.904;2023-08-31T03:57:51;2.70;;;2.50;;
10637;SDS011;47007;49.252;8.904;2023-08-31T03:58:36;5.95;;;2.90;;
10637;SDS011;47007;49.252;8.904;2023-08-31T03:59:18;3.58;;;2.70;;
10637;SDS011;47007;49.252;8.904;2023-08-31T04:00:00;2.85;;;2.60;;
10637;SDS011;47007;49.252;8.904;2023-08-31T04:00:41;3.25;;;2.20;;
10637;SDS011;47007;49.252;8.904;2023-08-31T04:01:23;2.92;;;2.60;;
10637;SDS011;47007;49.252;8.904;2023-08-31T04:02:05;4.93;;;2.90;;
10637;SDS011;47007;49.252;8.904;2023-08-31T04:02:47;4.07;;;2.78;;
10637;SDS011;47007;49.252;8.904;2023-08-31T04:03:34;4.85;;;2.70;;
10637;SDS011;47007;49.252;8.904;2023-08-31T04:04:15;2.78;;;2.15;;
10637;SDS011;47007;49.252;8.904;2023-08-31T04:04:57;2.70;;;2.50;;
10637;SDS011;47007;49.252;8.904;2023-08-31T04:05:39;2.97;;;2.50;;
10637;SDS011;47007;49.252;8.904;2023-08-31T04:06:21;2.53;;;2.33;;
10637;SDS011;47007;49.252;8.904;2023-08-31T04:07:02;2.90;;;2.58;;
10637;SDS011;47007;49.252;8.904;2023-08-31T04:07:46;3.38;;;2.53;;
10637;SDS011;47007;49.252;8.904;2023-08-31T04:08:27;2.65;;;2.45;;
10637;SDS011;47007;49.252;8.904;2023-08-31T04:09:09;2.72;;;2.42;;
10637;SDS011;47007;49.252;8.904;2023-08-31T04:09:51;2.72;;;2.53;;
10637;SDS011;47007;49.252;8.904;2023-08-31T04:10:33;2.92;;;2.63;;
10637;SDS011;47007;49.252;8.904;2023-08-31T04:11:14;4.53;;;2.58;;
10637;SDS011;47007;49.252;8.904;2023-08-31T04:11:56;3.22;;;2.78;;
10637;SDS011;47007;49.252;8.904;2023-08-31T04:12:38;2.60;;;2.40;;
10637;SDS011;47007;49.252;8.904;2023-08-31T04:13:20;4.82;;;2.88;;
10637;SDS011;47007;49.252;8.904;2023-08-31T04:14:02;2.60;;;2.40;;
10637;SDS011;47007;49.252;8.904;2023-08-31T04:14:44;3.95;;;2.60;;
10637;SDS011;47007;49.252;8.904;2023-08-31T04:15:26;3.13;;;2.80;;
10637;SDS011;47007;49.252;8.904;2023-08-31T04:16:07;2.80;;;2.55;;
10637;SDS011;47007;49.252;8.904;2023-08-31T04:16:49;3.38;;;2.72;;
10637;SDS011;47007;49.252;8.904;2023-08-31T04:17:31;3.25;;;2.95;;
10637;SDS011;47007;49.252;8.904;2023-08-31T04:18:14;2.53;;;2.33;;
10637;SDS011;47007;49.252;8.904;2023-08-31T04:18:55;2.97;;;2.75;;
10637;SDS011;47007;49.252;8.904;2023-08-31T04:19:37;3.17;;;2.83;;
10637;SDS011;47007;49.252;8.904;2023-08-31T04:20:20;3.40;;;2.50;;
10637;SDS011;47007;49.252;8.904;2023-08-31T04:21:02;2.75;;;2.55;;
10637;SDS011;47007;49.252;8.904;2023-08-31T04:21:44;2.80;;;2.60;;
10637;SDS011;47007;49.252;8.904;2023-08-31T04:22:26;2.95;;;2.75;;
10637;SDS011;47007;49.252;8.904;2023-08-31T04:23:08;3.25;;;2.95;;
10637;SDS011;47007;49.252;8.904;2023-08-31T04:23:49;3.00;;;2.80;;
10637;SDS011;47007;49.252;8.904;2023-08-31T04:24:31;3.20;;;2.90;;
10637;SDS011;47007;49.252;8.904;2023-08-31T04:25:12;2.80;;;2.60;;
10637;SDS011;47007;49.252;8.904;2023-08-31T04:25:54;4.40;;;3.05;;
10637;SDS011;47007;49.252;8.904;2023-08-31T04:26:36;3.25;;;2.75;;
10637;SDS011;47007;49.252;8.904;2023-08-31T04:27:18;5.38;;;2.80;;